createdAt,value
2022-10-17T00:00:39.985Z,12.67
2022-10-17T00:06:06.744Z,12.61
2022-10-17T00:11:17.834Z,12.57
2022-10-17T00:16:32.308Z,12.55
2022-10-17T00:21:34.184Z,12.50
2022-10-17T00:26:36.165Z,12.43
2022-10-17T00:31:37.985Z,12.39
2022-10-17T00:36:39.919Z,12.35
2022-10-17T00:41:41.795Z,12.31
2022-10-17T00:46:43.673Z,12.27
2022-10-17T00:51:58.759Z,12.26
2022-10-17T00:57:01.253Z,12.24
2022-10-17T01:02:06.406Z,12.20
2022-10-17T01:07:09.511Z,12.19
2022-10-17T01:12:14.154Z,12.17
2022-10-17T01:17:25.043Z,12.16
2022-10-17T01:22:36.854Z,12.13
2022-10-17T01:27:51.325Z,12.11
2022-10-17T01:33:21.364Z,12.05
2022-10-17T01:38:31.739Z,12.01
2022-10-17T01:43:59.434Z,12.00
2022-10-17T01:49:04.472Z,11.99
2022-10-17T01:54:12.596Z,11.96
2022-10-17T01:59:19.593Z,11.90
2022-10-17T02:04:22.084Z,11.83
2022-10-17T02:09:26.420Z,11.75
2022-10-17T02:14:47.035Z,11.62
2022-10-17T02:20:30.386Z,11.53
2022-10-17T02:25:44.347Z,11.44
2022-10-17T02:30:57.795Z,11.43
2022-10-17T02:36:07.046Z,11.48
2022-10-17T02:41:12.313Z,11.48
2022-10-17T02:46:22.677Z,11.51
2022-10-17T02:51:59.475Z,11.50
2022-10-17T02:57:10.160Z,11.48
2022-10-17T03:02:12.343Z,11.49
2022-10-17T03:07:14.218Z,11.50
2022-10-17T03:12:15.995Z,11.51
2022-10-17T03:17:17.870Z,11.46
2022-10-17T03:22:19.750Z,11.41
2022-10-17T03:27:21.627Z,11.37
2022-10-17T03:32:23.501Z,11.34
2022-10-17T03:37:25.485Z,11.31
2022-10-17T03:42:27.361Z,11.31
2022-10-17T03:47:29.518Z,11.29
2022-10-17T03:52:31.526Z,11.24
2022-10-17T03:57:35.763Z,11.19
2022-10-17T04:02:37.427Z,11.16
2022-10-17T04:07:39.306Z,11.13
2022-10-17T04:12:41.287Z,11.10
2022-10-17T04:17:43.162Z,10.88
2022-10-17T04:22:45.040Z,10.60
2022-10-17T04:27:48.554Z,10.31
2022-10-17T04:32:50.535Z,10.18
2022-10-17T04:37:52.410Z,10.20
2022-10-17T04:42:54.289Z,10.20
2022-10-17T04:47:56.985Z,10.24
2022-10-17T04:52:59.581Z,10.29
2022-10-17T04:58:01.455Z,10.27
2022-10-17T05:03:03.537Z,10.32
2022-10-17T05:08:06.388Z,10.36
2022-10-17T05:13:09.652Z,10.31
2022-10-17T05:18:11.661Z,10.27
2022-10-17T05:23:13.503Z,10.27
2022-10-17T05:28:15.382Z,10.32
2022-10-17T05:33:17.259Z,10.38
2022-10-17T05:38:19.136Z,10.46
2022-10-17T05:43:21.118Z,10.58
2022-10-17T05:48:23.721Z,10.74
2022-10-17T05:53:25.892Z,10.90
2022-10-17T06:03:50.543Z,10.99
2022-10-17T06:08:52.517Z,10.82
2022-10-17T06:13:54.598Z,10.77
2022-10-17T06:18:56.478Z,10.90
2022-10-17T06:23:58.355Z,11.01
2022-10-17T06:29:00.390Z,11.14
2022-10-17T06:34:02.321Z,11.27
2022-10-17T06:39:04.191Z,11.52
2022-10-17T06:44:10.801Z,11.87
2022-10-17T06:49:12.757Z,12.16
2022-10-17T06:54:14.940Z,12.44
2022-10-17T06:59:16.921Z,12.57
2022-10-17T07:04:19.309Z,12.81
2022-10-17T07:09:22.421Z,13.16
2022-10-17T07:14:31.358Z,13.48
2022-10-17T07:19:33.236Z,13.63
2022-10-17T07:24:35.319Z,13.73
2022-10-17T07:29:37.400Z,13.95
2022-10-17T07:34:39.279Z,14.28
2022-10-17T07:39:41.163Z,14.49
2022-10-17T07:44:45.694Z,14.66
2022-10-17T07:49:47.569Z,14.89
2022-10-17T07:54:49.857Z,15.19
2022-10-17T07:59:52.655Z,15.46
2022-10-17T08:04:54.739Z,15.70
2022-10-17T08:09:56.947Z,15.91
2022-10-17T08:14:59.004Z,15.99
2022-10-17T08:20:00.984Z,16.10
2022-10-17T08:25:02.970Z,16.36
2022-10-17T08:30:05.354Z,16.79
2022-10-17T08:35:07.843Z,17.24
2022-10-17T08:40:20.575Z,17.45
2022-10-17T08:45:48.973Z,17.58
2022-10-17T08:50:55.765Z,17.45
2022-10-17T08:56:04.576Z,17.27
2022-10-17T09:01:36.804Z,17.29
2022-10-17T09:06:53.418Z,17.40
2022-10-17T09:12:18.641Z,17.59
2022-10-17T09:17:38.848Z,17.60
2022-10-17T09:23:06.839Z,17.65
2022-10-17T09:28:30.364Z,17.75
2022-10-17T09:33:59.450Z,17.97
2022-10-17T09:39:11.964Z,18.22
2022-10-17T09:44:22.090Z,18.46
2022-10-17T09:49:36.197Z,18.68
2022-10-17T09:54:53.695Z,18.88
2022-10-17T10:00:02.482Z,19.10
2022-10-17T10:05:20.991Z,19.31
2022-10-17T10:10:27.853Z,19.52
2022-10-17T10:15:37.353Z,19.68
2022-10-17T10:20:40.301Z,19.85
2022-10-17T10:25:55.905Z,20.03
2022-10-17T10:31:02.078Z,20.10
2022-10-17T10:36:07.406Z,20.28
2022-10-17T10:41:11.361Z,20.45
2022-10-17T10:46:31.465Z,20.54
2022-10-17T10:51:52.080Z,20.65
2022-10-17T10:56:57.852Z,20.80
2022-10-17T11:01:59.757Z,20.98
2022-10-17T11:07:11.230Z,21.22
2022-10-17T11:12:25.808Z,21.34
2022-10-17T11:17:49.493Z,21.42
2022-10-17T11:22:57.412Z,21.49
2022-10-17T11:28:04.660Z,21.62
2022-10-17T11:33:12.123Z,21.71
2022-10-17T11:38:20.861Z,21.86
2022-10-17T11:43:32.059Z,21.95
2022-10-17T11:48:45.608Z,21.98
2022-10-17T11:53:50.046Z,22.07
2022-10-17T11:59:15.477Z,22.23
2022-10-17T12:04:29.986Z,22.34
2022-10-17T12:09:45.754Z,22.43
2022-10-17T12:14:48.038Z,22.53
2022-10-17T12:19:49.916Z,22.63
2022-10-17T12:24:58.187Z,22.92
2022-10-17T12:30:24.495Z,23.35
2022-10-17T12:35:28.111Z,23.78
2022-10-17T12:40:36.134Z,24.21
2022-10-17T12:45:45.895Z,24.39
2022-10-17T12:56:45.683Z,24.18
2022-10-17T13:01:52.913Z,24.14
2022-10-17T13:06:58.682Z,24.38
2022-10-17T13:12:04.496Z,24.47
2022-10-17T13:17:22.666Z,24.39
2022-10-17T13:22:28.938Z,24.38
2022-10-17T13:27:33.993Z,24.41
2022-10-17T13:32:38.942Z,24.22
2022-10-17T13:37:43.381Z,23.93
2022-10-17T13:42:46.587Z,23.77
2022-10-17T13:47:48.670Z,23.73
2022-10-17T13:53:15.535Z,23.70
2022-10-17T13:58:18.536Z,23.67
2022-10-17T14:03:31.828Z,23.68
2022-10-17T14:48:23.230Z,24.13
2022-10-17T14:53:30.221Z,24.23
2022-10-17T14:58:34.129Z,24.26
2022-10-17T15:03:37.426Z,24.02
2022-10-17T15:08:40.722Z,23.58
2022-10-17T15:13:45.683Z,23.08
2022-10-17T15:18:49.826Z,22.58
2022-10-17T15:23:53.240Z,22.07
2022-10-17T15:28:56.385Z,21.58
2022-10-17T15:33:59.657Z,21.08
2022-10-17T15:39:03.583Z,20.59
2022-10-17T15:44:06.997Z,20.20
2022-10-17T15:49:13.815Z,19.86
2022-10-17T15:54:17.000Z,19.54
2022-10-17T15:59:24.606Z,19.26
2022-10-17T16:04:29.453Z,18.99
2022-10-17T16:09:33.688Z,18.77
2022-10-17T16:14:36.794Z,18.58
2022-10-17T16:19:40.105Z,18.41
2022-10-17T16:24:43.210Z,18.25
2022-10-17T16:29:46.317Z,18.12
2022-10-17T16:34:49.524Z,18.01
2022-10-17T16:39:53.966Z,17.92
2022-10-17T16:44:57.174Z,17.83
2022-10-17T16:50:00.480Z,17.75
2022-10-17T16:55:03.791Z,17.70
2022-10-17T17:00:08.233Z,17.67
2022-10-17T17:05:11.964Z,17.65
2022-10-17T17:10:15.260Z,17.66
2022-10-17T17:15:18.467Z,17.67
2022-10-17T17:20:21.579Z,17.70
2022-10-17T17:25:25.088Z,17.72
2022-10-17T17:30:29.937Z,17.74
2022-10-17T17:35:33.044Z,17.81
2022-10-17T17:40:36.351Z,17.90
2022-10-17T17:45:39.868Z,17.97
2022-10-17T17:50:44.479Z,18.07
2022-10-17T17:55:47.719Z,18.12
2022-10-17T18:00:50.944Z,18.16
2022-10-17T18:05:54.552Z,18.16
2022-10-17T18:10:58.982Z,18.16
2022-10-17T18:16:03.009Z,18.18
2022-10-17T18:21:06.629Z,18.19
2022-10-17T18:26:10.862Z,18.19
2022-10-17T18:31:19.163Z,18.17
2022-10-17T18:36:22.910Z,18.15
2022-10-17T18:41:27.142Z,18.13
2022-10-17T18:46:36.296Z,18.11
2022-10-17T18:51:40.729Z,18.05
2022-10-17T18:56:45.197Z,17.98
2022-10-17T19:01:48.569Z,17.92
2022-10-17T19:06:51.991Z,17.87
2022-10-17T19:11:55.608Z,17.81
2022-10-17T19:17:00.151Z,17.76
2022-10-17T19:22:03.869Z,17.72
2022-10-17T19:27:07.181Z,17.69
2022-10-17T19:32:15.725Z,17.67
2022-10-17T19:37:21.383Z,17.66
2022-10-17T19:42:24.587Z,17.64
2022-10-17T19:47:27.897Z,17.64
2022-10-17T19:52:31.271Z,17.64
2022-10-17T19:57:36.671Z,17.63
2022-10-17T20:02:39.879Z,17.65
2022-10-17T20:07:43.086Z,17.65
2022-10-17T20:12:46.603Z,17.66
2022-10-17T21:03:17.765Z,17.90
2022-10-17T21:08:19.642Z,17.74
2022-10-17T21:13:21.522Z,17.62
2022-10-17T21:18:23.400Z,17.48
2022-10-17T21:23:25.281Z,17.34
2022-10-17T21:28:27.173Z,17.21
2022-10-17T21:33:29.026Z,17.08
2022-10-17T21:38:31.109Z,17.00
2022-10-17T21:43:34.216Z,16.90
2022-10-17T21:48:35.996Z,16.82
2022-10-17T21:53:38.276Z,16.76
2022-10-17T21:58:40.878Z,16.72
2022-10-17T22:03:46.729Z,16.70
2022-10-17T22:08:49.338Z,16.66
2022-10-17T22:14:00.752Z,16.65
2022-10-17T22:19:06.468Z,16.60
2022-10-17T22:24:12.339Z,16.55
2022-10-17T22:29:15.281Z,16.50
2022-10-17T22:34:18.190Z,16.45
2022-10-17T22:39:20.058Z,16.37
2022-10-17T22:44:21.871Z,16.30
2022-10-17T22:49:23.707Z,16.23
2022-10-17T22:54:25.583Z,16.16
2022-10-17T22:59:27.461Z,16.07
2022-10-17T23:04:29.339Z,16.03
2022-10-17T23:09:31.217Z,15.97
2022-10-17T23:14:36.965Z,15.92
2022-10-17T23:19:39.782Z,15.88
2022-10-17T23:24:41.558Z,15.82
2022-10-17T23:29:43.435Z,15.80
2022-10-17T23:34:45.313Z,15.76
2022-10-17T23:39:47.292Z,15.71
2022-10-17T23:44:49.273Z,15.69
2022-10-17T23:49:51.155Z,15.66
2022-10-17T23:54:53.742Z,15.64
2022-10-17T23:59:55.727Z,15.61
